Time;durP1;ratioP1;P1;durP2;ratioP2;P2;SDS_P1;SDS_P2;PMS_P1;PMS_P2;Temp;Humidity;BMP_temperature;BMP_pressure;BME280_temperature;BME280_humidity;BME280_pressure;Samples;Min_cycle;Max_cycle;Signal;HPM_P1;HPM_P2
2022/03/11 00:02:23;;;;;;;14.77;10.05;;;;;;;7.46;39.93;101712.03;5033980;28;20082;-80
2022/03/11 00:04:48;;;;;;;15.15;9.13;;;;;;;7.43;40.18;101710.41;5033105;28;20354;-80
2022/03/11 00:07:14;;;;;;;14.60;9.05;;;;;;;7.42;40.10;101711.31;5047885;28;20029;-81
2022/03/11 00:09:40;;;;;;;13.48;8.95;;;;;;;7.37;40.25;101700.97;5031695;28;20087;-80
2022/03/11 00:12:07;;;;;;;15.77;10.10;;;;;;;7.35;40.40;101700.19;5032644;28;20022;-79
2022/03/11 00:14:33;;;;;;;16.23;8.60;;;;;;;7.37;40.02;101700.13;5032946;28;20116;-80
2022/03/11 00:16:58;;;;;;;13.70;9.70;;;;;;;7.31;40.44;101695.13;5025986;28;20547;-80
2022/03/11 00:19:23;;;;;;;13.83;9.50;;;;;;;7.32;40.99;101694.22;5033049;28;20435;-81
2022/03/11 00:21:49;;;;;;;15.30;9.60;;;;;;;7.29;40.54;101703.13;5032348;28;20276;-81
2022/03/11 00:24:14;;;;;;;15.70;9.55;;;;;;;7.23;40.76;101696.38;5034375;28;20036;-82
2022/03/11 00:26:39;;;;;;;13.32;9.10;;;;;;;7.21;40.75;101698.25;5044638;28;20485;-81
2022/03/11 00:29:05;;;;;;;15.68;10.05;;;;;;;7.19;40.86;101699.25;5032426;28;20014;-81
2022/03/11 00:31:30;;;;;;;14.07;9.32;;;;;;;7.14;40.88;101680.97;5031912;28;20117;-81
2022/03/11 00:33:56;;;;;;;14.15;9.57;;;;;;;7.12;40.82;101692.56;5030830;28;20051;-80
2022/03/11 00:36:22;;;;;;;18.48;9.68;;;;;;;7.10;40.93;101694.41;5031621;28;20060;-81
2022/03/11 00:38:47;;;;;;;16.63;9.68;;;;;;;7.07;41.04;101695.41;5023768;28;20476;-80
2022/03/11 00:41:13;;;;;;;18.40;9.90;;;;;;;7.04;41.24;101692.91;5031579;28;20095;-80
2022/03/11 00:43:38;;;;;;;15.73;9.60;;;;;;;7.00;41.52;101692.19;5032095;28;20061;-80
2022/03/11 00:46:03;;;;;;;16.10;10.25;;;;;;;6.97;41.44;101689.69;5032041;28;20021;-80
2022/03/11 00:48:29;;;;;;;15.90;9.45;;;;;;;6.89;41.88;101680.44;5024750;28;20476;-80
2022/03/11 00:50:54;;;;;;;16.60;9.88;;;;;;;6.84;41.99;101689.47;5031458;28;20033;-80
2022/03/11 00:53:20;;;;;;;16.38;9.73;;;;;;;6.81;42.28;101686.97;5031849;28;20037;-80
2022/03/11 00:55:45;;;;;;;15.27;10.10;;;;;;;6.76;42.13;101681.03;5031844;28;20030;-80
2022/03/11 00:58:11;;;;;;;15.73;9.27;;;;;;;6.72;42.41;101675.97;5031537;28;20021;-80
2022/03/11 01:00:36;;;;;;;15.52;9.35;;;;;;;6.70;42.36;101673.41;5031650;28;20529;-79
2022/03/11 01:03:01;;;;;;;15.77;10.15;;;;;;;6.67;42.52;101670.91;5031229;28;20068;-80
2022/03/11 01:05:27;;;;;;;15.80;10.20;;;;;;;6.61;42.61;101672.06;5031473;28;20076;-80
2022/03/11 01:07:52;;;;;;;15.40;10.50;;;;;;;6.56;42.77;101665.25;5031772;28;20474;-80
2022/03/11 01:10:18;;;;;;;15.23;10.35;;;;;;;6.53;42.99;101666.28;5031257;28;20030;-81
2022/03/11 01:12:43;;;;;;;17.55;10.70;;;;;;;6.50;43.20;101655.84;5029681;28;20036;-80
2022/03/11 01:15:10;;;;;;;21.52;10.77;;;;;;;6.46;43.02;101663.06;5031027;28;20108;-80
2022/03/11 01:17:36;;;;;;;19.48;10.80;;;;;;;6.43;43.08;101655.28;5031171;28;20033;-80
2022/03/11 01:20:01;;;;;;;18.23;11.00;;;;;;;6.38;43.23;101659.91;5031352;28;20032;-80
2022/03/11 01:22:27;;;;;;;16.90;11.30;;;;;;;6.34;43.34;101649.56;5031185;28;20100;-81
2022/03/11 01:24:52;;;;;;;20.20;10.70;;;;;;;6.33;43.38;101650.47;5029103;28;20517;-79
2022/03/11 01:27:17;;;;;;;22.40;11.50;;;;;;;6.29;43.46;101639.22;5030941;28;20459;-79
2022/03/11 01:29:42;;;;;;;18.70;10.77;;;;;;;6.26;43.49;101640.22;5036049;28;20029;-80
2022/03/11 01:32:08;;;;;;;18.23;11.40;;;;;;;6.23;43.70;101639.53;5039868;28;20506;-80
2022/03/11 01:34:33;;;;;;;15.93;10.60;;;;;;;6.21;43.65;101639.59;5030511;28;20036;-80
2022/03/11 01:36:58;;;;;;;17.60;10.65;;;;;;;6.16;43.73;101620.47;5031059;28;20028;-81
2022/03/11 01:39:23;;;;;;;20.42;10.95;;;;;;;6.17;43.75;101631.88;5030737;28;20041;-80
2022/03/11 01:41:49;;;;;;;18.15;11.13;;;;;;;6.14;43.99;101634.66;5030947;28;20026;-80
2022/03/11 01:44:14;;;;;;;21.40;11.10;;;;;;;6.08;43.95;101626.09;5030908;28;20039;-80
2022/03/11 01:46:39;;;;;;;17.00;10.32;;;;;;;6.06;44.55;101617.41;5030247;28;20508;-80
2022/03/11 01:49:07;;;;;;;18.42;11.02;;;;;;;6.02;44.02;101609.69;5030285;28;20051;-79
2022/03/11 01:51:36;;;;;;;15.45;10.05;;;;;;;6.01;43.94;101614.13;5030551;28;20492;-80
2022/03/11 01:54:01;;;;;;;17.88;10.43;;;;;;;5.97;44.17;101604.63;5030936;28;20029;-80
2022/03/11 01:56:27;;;;;;;17.13;10.75;;;;;;;5.96;44.01;101599.38;5028505;28;20535;-80
2022/03/11 01:58:54;;;;;;;15.30;10.50;;;;;;;5.96;44.14;101599.38;5030815;28;20079;-80
2022/03/11 02:01:20;;;;;;;16.30;10.32;;;;;;;5.93;44.01;101593.31;5029670;28;20033;-80
2022/03/11 02:03:46;;;;;;;15.18;10.85;;;;;;;5.92;43.86;101593.38;5030019;28;20033;-81
2022/03/11 02:06:13;;;;;;;16.80;10.48;;;;;;;5.88;44.12;101586.56;5030802;28;20018;-80
2022/03/11 02:08:39;;;;;;;19.70;11.05;;;;;;;5.85;44.35;101582.25;5031047;28;20044;-81
2022/03/11 02:11:05;;;;;;;17.40;10.13;;;;;;;5.83;44.11;101573.56;5030861;28;20082;-81
2022/03/11 02:13:50;;;;;;;15.73;10.57;;;;;;;5.81;44.03;101572.81;5030164;28;20053;-81
2022/03/11 02:16:21;;;;;;;16.25;10.63;;;;;;;5.83;44.17;101575.34;5030677;28;20029;-81
2022/03/11 02:18:47;;;;;;;15.73;10.05;;;;;;;5.85;43.64;101573.50;5029035;28;20033;-80
2022/03/11 02:21:14;;;;;;;16.83;10.55;;;;;;;5.84;43.83;101570.00;5043211;28;20040;-80
2022/03/11 02:23:44;;;;;;;22.35;10.80;;;;;;;5.82;44.02;101563.94;5031742;28;20481;-81
2022/03/11 02:26:09;;;;;;;;;;;;;;;5.87;43.43;101567.22;5030914;28;20073;-80
2022/03/11 02:28:34;;;;;;;17.30;10.50;;;;;;;5.83;43.92;101556.88;5027531;28;19963;-81
2022/03/11 02:31:00;;;;;;;15.98;10.55;;;;;;;5.84;43.53;101548.91;5041388;28;20108;-80
2022/03/11 02:33:25;;;;;;;15.48;10.00;;;;;;;5.86;43.53;101543.56;5022206;28;20033;-80
2022/03/11 02:35:50;;;;;;;21.80;10.40;;;;;;;5.90;43.40;101546.00;5030601;28;20033;-80
2022/03/11 02:38:15;;;;;;;18.25;10.50;;;;;;;5.91;43.14;101546.84;5030396;28;20071;-81
2022/03/11 02:40:41;;;;;;;22.58;10.88;;;;;;;5.92;43.49;101544.16;5030147;28;20029;-81
2022/03/11 02:43:06;;;;;;;15.25;10.02;;;;;;;5.90;43.03;101553.91;5030501;28;20026;-79
2022/03/11 02:45:31;;;;;;;17.50;10.65;;;;;;;5.89;43.37;101546.91;5029943;28;20025;-80
2022/03/11 02:47:56;;;;;;;14.70;10.10;;;;;;;5.90;43.33;101542.53;5030511;28;20385;-80
2022/03/11 02:50:22;;;;;;;15.20;10.07;;;;;;;5.89;43.15;101549.56;5030277;28;20033;-80
2022/03/11 02:52:47;;;;;;;16.88;10.82;;;;;;;5.94;42.95;101549.34;5030037;28;20527;-79
2022/03/11 02:55:12;;;;;;;12.73;9.55;;;;;;;5.91;43.21;101542.44;5030356;28;20057;-79
2022/03/11 02:57:37;;;;;;;16.27;10.82;;;;;;;5.87;43.10;101538.22;5029937;28;20049;-80
2022/03/11 03:00:04;;;;;;;19.85;9.63;;;;;;;5.88;43.05;101534.69;5033514;28;20042;-80
2022/03/11 03:02:29;;;;;;;16.23;10.25;;;;;;;5.83;43.17;101526.13;5033861;28;20025;-79
2022/03/11 03:04:54;;;;;;;17.25;10.75;;;;;;;5.81;43.19;101524.47;5028636;28;20032;-80
2022/03/11 03:07:19;;;;;;;17.55;10.65;;;;;;;5.83;43.83;101530.53;5032642;28;20040;-80
2022/03/11 03:09:44;;;;;;;16.90;10.80;;;;;;;5.81;43.36;101530.63;5033725;28;20025;-79
2022/03/11 03:12:10;;;;;;;16.38;10.60;;;;;;;5.80;43.22;101531.53;5033797;28;20029;-79
2022/03/11 03:14:36;;;;;;;14.60;10.10;;;;;;;5.79;43.24;101531.59;5030810;28;20052;-80
2022/03/11 03:17:02;;;;;;;17.40;10.25;;;;;;;5.75;43.18;101525.63;5033601;28;20445;-79
2022/03/11 03:19:27;;;;;;;18.88;10.65;;;;;;;5.74;42.81;101526.53;5033385;28;20034;-79
2022/03/11 03:21:52;;;;;;;16.13;10.10;;;;;;;5.74;43.16;101529.16;5029410;28;20388;-79
2022/03/11 03:24:20;;;;;;;14.93;9.93;;;;;;;5.72;43.27;101523.97;5033246;28;20090;-79
2022/03/11 03:26:46;;;;;;;14.00;9.63;;;;;;;5.73;43.00;101523.06;5023472;28;20056;-79
2022/03/11 03:29:11;;;;;;;19.17;10.68;;;;;;;5.73;43.07;101524.84;5034217;28;20025;-79
2022/03/11 03:31:36;;;;;;;15.07;9.73;;;;;;;5.70;43.07;101524.97;5032810;28;20488;-80
2022/03/11 03:34:01;;;;;;;16.27;10.13;;;;;;;5.68;43.15;101525.03;5033167;28;20026;-80
2022/03/11 03:36:27;;;;;;;19.88;10.65;;;;;;;5.70;43.11;101522.34;5033130;28;20028;-80
2022/03/11 03:38:53;;;;;;;14.30;9.77;;;;;;;5.68;43.16;101518.91;5032939;28;20082;-79
2022/03/11 03:41:18;;;;;;;16.33;9.95;;;;;;;5.67;42.97;101520.69;5033982;28;20025;-80
2022/03/11 03:43:43;;;;;;;16.48;9.70;;;;;;;5.66;43.18;101512.84;5033859;28;20033;-80
2022/03/11 03:46:08;;;;;;;14.15;9.48;;;;;;;5.65;42.91;101525.19;5033906;28;20022;-79
2022/03/11 03:48:34;;;;;;;13.45;9.88;;;;;;;5.64;43.06;101518.19;5033315;28;20030;-80
2022/03/11 03:50:59;;;;;;;20.27;10.10;;;;;;;5.65;42.82;101519.06;5042713;28;20103;-80
2022/03/11 03:53:25;;;;;;;15.80;9.70;;;;;;;5.58;43.00;101507.94;5033393;28;20029;-79
2022/03/11 03:55:50;;;;;;;15.35;9.70;;;;;;;5.62;43.06;101513.91;5033098;28;20540;-79
2022/03/11 03:58:15;;;;;;;15.57;10.13;;;;;;;5.57;43.14;101511.47;5033317;28;20025;-79
2022/03/11 04:00:41;;;;;;;14.82;9.38;;;;;;;5.56;43.59;101512.41;5032745;28;20036;-79
2022/03/11 04:03:06;;;;;;;12.52;9.20;;;;;;;5.57;43.17;101511.47;5032550;28;20400;-79
2022/03/11 04:05:31;;;;;;;13.40;9.73;;;;;;;5.55;43.16;101508.06;5032779;28;20079;-81
2022/03/11 04:07:56;;;;;;;14.73;9.70;;;;;;;5.52;43.23;101514.31;5032675;28;20026;-80
2022/03/11 04:10:22;;;;;;;16.50;9.50;;;;;;;5.50;43.25;101505.63;5045569;28;21635;-80
2022/03/11 04:12:47;;;;;;;13.90;9.23;;;;;;;5.51;43.14;101509.13;5032886;28;20032;-80
2022/03/11 04:15:13;;;;;;;14.48;9.70;;;;;;;5.46;43.31;101504.06;5030061;28;20036;-80
2022/03/11 04:17:39;;;;;;;12.63;9.00;;;;;;;5.48;43.19;101507.50;5040551;28;20520;-79
2022/03/11 04:20:05;;;;;;;13.10;9.27;;;;;;;5.48;43.08;101507.50;5035826;28;20072;-79
2022/03/11 04:22:30;;;;;;;13.38;9.40;;;;;;;5.48;43.19;101509.25;5046389;28;20029;-79
2022/03/11 04:24:55;;;;;;;14.43;9.55;;;;;;;5.45;43.21;101506.78;5032437;28;20032;-80
2022/03/11 04:27:21;;;;;;;14.73;8.93;;;;;;;5.45;43.22;101509.41;5032488;28;20544;-79
2022/03/11 04:29:46;;;;;;;15.75;9.45;;;;;;;5.40;43.20;101490.31;5031899;28;20056;-80
2022/03/11 04:32:12;;;;;;;14.18;9.40;;;;;;;5.44;43.51;101486.63;5032537;28;20108;-79
2022/03/11 04:34:37;;;;;;;14.35;9.10;;;;;;;5.43;43.01;101487.53;5032655;28;20041;-78
2022/03/11 04:37:03;;;;;;;16.02;9.30;;;;;;;5.43;42.88;101485.75;5037539;28;20056;-79
2022/03/11 04:39:28;;;;;;;14.25;8.98;;;;;;;5.43;43.22;101480.50;5032378;28;20032;-79
2022/03/11 04:41:53;;;;;;;13.27;8.55;;;;;;;5.42;43.04;101483.19;5032254;28;20502;-79
2022/03/11 04:44:19;;;;;;;13.85;9.10;;;;;;;5.43;42.97;101488.41;5032278;28;20022;-80
2022/03/11 04:46:48;;;;;;;16.08;8.55;;;;;;;5.43;42.58;101487.53;5031571;28;20029;-79
2022/03/11 04:49:14;;;;;;;13.48;8.65;;;;;;;5.38;43.00;101485.13;5030098;28;20153;-79
2022/03/11 04:51:39;;;;;;;12.73;8.75;;;;;;;5.42;42.86;101485.84;5032106;28;20116;-80
2022/03/11 04:54:06;;;;;;;16.85;8.77;;;;;;;5.41;42.98;101486.75;5031982;28;20491;-80
2022/03/11 04:56:32;;;;;;;13.23;8.38;;;;;;;5.41;43.07;101486.75;5031318;28;20485;-79
2022/03/11 04:58:58;;;;;;;11.95;8.80;;;;;;;5.38;43.11;101491.22;5030485;28;20432;-79
2022/03/11 05:01:23;;;;;;;13.48;9.05;;;;;;;5.37;43.02;101486.88;5031378;28;20120;-80
2022/03/11 05:03:48;;;;;;;11.27;8.43;;;;;;;5.36;43.14;101487.81;5031957;28;20469;-79
2022/03/11 05:06:13;;;;;;;16.50;9.15;;;;;;;5.35;42.78;101480.81;5018297;28;20404;-79
2022/03/11 05:08:39;;;;;;;13.25;8.35;;;;;;;5.37;42.93;101486.88;5031490;28;20028;-80
2022/03/11 05:11:05;;;;;;;13.75;9.00;;;;;;;5.42;42.59;101486.69;5044399;28;20083;-79
2022/03/11 05:13:30;;;;;;;12.63;8.48;;;;;;;5.37;42.85;101484.25;5032208;28;20034;-78
2022/03/11 05:15:56;;;;;;;14.02;9.18;;;;;;;5.37;42.94;101486.88;5031497;28;20087;-79
2022/03/11 05:18:21;;;;;;;11.90;9.13;;;;;;;5.34;42.76;101473.84;5031571;28;20287;-79
2022/03/11 05:20:46;;;;;;;14.27;9.13;;;;;;;5.36;42.76;101474.66;5030776;28;20093;-79
2022/03/11 05:23:12;;;;;;;11.82;8.48;;;;;;;5.38;42.89;101478.06;5031356;28;20017;-79
2022/03/11 05:25:37;;;;;;;13.88;8.88;;;;;;;5.37;42.97;101478.13;5031252;28;20077;-79
2022/03/11 05:28:03;;;;;;;15.75;9.45;;;;;;;5.32;43.24;101480.13;5030842;28;20550;-79
2022/03/11 05:30:28;;;;;;;16.02;9.35;;;;;;;5.26;43.47;101468.09;5031245;28;20468;-79
2022/03/11 05:32:53;;;;;;;16.00;9.07;;;;;;;5.22;43.58;101477.03;5030839;28;20288;-79
2022/03/11 05:35:19;;;;;;;15.80;8.30;;;;;;;5.24;43.64;101474.31;5031211;28;20461;-79
2022/03/11 05:37:46;;;;;;;15.75;8.27;;;;;;;5.21;43.42;101480.56;5024564;28;20111;-79
2022/03/11 05:40:11;;;;;;;12.10;8.43;;;;;;;5.20;43.59;101473.63;5030986;28;20476;-79
2022/03/11 05:42:37;;;;;;;12.30;8.45;;;;;;;5.17;43.90;101476.38;5025693;28;20105;-79
2022/03/11 05:45:02;;;;;;;11.55;7.88;;;;;;;5.17;43.89;101471.09;5029861;28;20029;-78
2022/03/11 05:47:28;;;;;;;12.63;8.90;;;;;;;5.14;43.93;101473.88;5030992;28;20551;-79
2022/03/11 05:49:54;;;;;;;13.52;8.93;;;;;;;5.12;43.94;101471.31;5030822;28;20164;-79
2022/03/11 05:52:20;;;;;;;14.70;9.25;;;;;;;5.10;44.31;101475.78;5031124;28;20067;-79
2022/03/11 05:54:46;;;;;;;16.13;9.32;;;;;;;5.08;44.25;101466.22;5022336;28;20037;-79
2022/03/11 05:57:11;;;;;;;13.48;8.98;;;;;;;5.11;44.22;101466.09;5031241;28;20029;-79
2022/03/11 05:59:36;;;;;;;14.30;9.07;;;;;;;5.11;44.28;101468.72;5031982;28;20445;-79
2022/03/11 06:02:03;;;;;;;13.90;8.90;;;;;;;5.06;44.98;101466.28;5031894;28;20037;-79
2022/03/11 06:04:29;;;;;;;14.60;8.40;;;;;;;5.10;44.50;101461.78;5032021;28;20022;-79
2022/03/11 06:06:54;;;;;;;13.32;9.60;;;;;;;5.02;44.76;101464.72;5031920;28;20100;-79
2022/03/11 06:09:19;;;;;;;15.43;9.80;;;;;;;5.03;45.04;101461.19;5042276;28;20428;-79
2022/03/11 06:11:45;;;;;;;16.17;8.95;;;;;;;5.02;45.26;101458.63;5051981;28;20495;-79
2022/03/11 06:14:10;;;;;;;12.73;8.75;;;;;;;5.02;45.17;101459.47;5051735;28;20135;-79
2022/03/11 06:16:35;;;;;;;12.38;8.50;;;;;;;5.00;45.06;101459.53;5033303;28;20021;-78
2022/03/11 06:19:00;;;;;;;13.80;8.90;;;;;;;4.99;45.22;101462.22;5038098;28;20395;-79
2022/03/11 06:21:26;;;;;;;12.02;8.82;;;;;;;5.01;45.50;101465.63;5039465;28;20035;-80
2022/03/11 06:23:51;;;;;;;13.05;8.55;;;;;;;4.98;45.70;101471.06;5031933;28;20045;-80
2022/03/11 06:26:17;;;;;;;15.80;11.05;;;;;;;5.00;45.68;101471.84;5031224;28;20049;-79
2022/03/11 06:28:42;;;;;;;15.30;9.25;;;;;;;5.03;45.52;101478.75;5025982;28;20030;-79
2022/03/11 06:31:08;;;;;;;29.63;16.83;;;;;;;5.01;45.84;101473.53;5020789;28;20022;-80
2022/03/11 06:33:37;;;;;;;15.88;10.10;;;;;;;5.03;45.68;101468.22;5032172;28;20041;-79
2022/03/11 06:36:03;;;;;;;16.42;8.57;;;;;;;5.03;45.89;101461.19;5035607;28;20018;-79
2022/03/11 06:38:29;;;;;;;14.20;8.45;;;;;;;5.04;45.92;101462.88;5035146;28;20048;-80
2022/03/11 06:40:55;;;;;;;13.98;9.27;;;;;;;5.02;46.13;101464.72;5035525;28;20026;-79
2022/03/11 06:43:21;;;;;;;14.25;8.95;;;;;;;5.04;46.17;101478.69;5035768;28;20029;-78
2022/03/11 06:45:46;;;;;;;14.68;9.98;;;;;;;5.00;46.05;101467.44;5037934;28;20022;-81
2022/03/11 06:48:11;;;;;;;18.10;10.15;;;;;;;5.07;46.12;101467.19;5034478;28;20045;-79
2022/03/11 06:50:37;;;;;;;16.77;9.52;;;;;;;5.09;45.98;101462.69;5035510;28;20036;-78
2022/03/11 06:53:02;;;;;;;15.10;10.50;;;;;;;5.09;46.20;101462.69;5035152;28;20033;-78
2022/03/11 06:55:27;;;;;;;14.55;8.73;;;;;;;5.11;46.00;101471.38;5035266;28;20055;-78
2022/03/11 06:57:53;;;;;;;18.90;10.43;;;;;;;5.10;46.29;101464.41;5035111;28;20427;-78
2022/03/11 07:00:18;;;;;;;19.55;10.80;;;;;;;5.12;46.11;101466.03;5033758;28;20029;-77
2022/03/11 07:02:44;;;;;;;17.38;11.73;;;;;;;5.18;46.05;101462.31;5034133;28;20065;-77
2022/03/11 07:05:11;;;;;;;18.17;9.80;;;;;;;5.20;46.20;101457.81;5032835;28;20033;-78
2022/03/11 07:07:37;;;;;;;15.65;9.63;;;;;;;5.25;46.04;101458.47;5036647;28;20463;-78
2022/03/11 07:10:05;;;;;;;14.07;9.73;;;;;;;5.28;46.09;101452.19;5034335;28;20052;-77
2022/03/11 07:12:31;;;;;;;17.90;10.35;;;;;;;5.33;45.95;101451.06;5033646;28;20033;-78
2022/03/11 07:14:59;;;;;;;17.25;11.75;;;;;;;5.36;45.93;101448.31;5034113;28;20115;-78
2022/03/11 07:17:26;;;;;;;17.23;8.80;;;;;;;5.43;45.61;101445.38;5033928;28;20037;-77
2022/03/11 07:19:51;;;;;;;18.33;11.95;;;;;;;5.44;45.79;101440.03;5034529;28;20119;-77
2022/03/11 07:22:16;;;;;;;15.70;9.75;;;;;;;5.49;45.91;101437.19;5034265;28;20030;-77
2022/03/11 07:24:42;;;;;;;16.60;9.73;;;;;;;5.57;45.58;101451.72;5034148;28;20038;-78
2022/03/11 07:27:07;;;;;;;19.15;9.63;;;;;;;5.59;45.61;101450.81;5033637;28;20099;-77
2022/03/11 07:29:32;;;;;;;21.30;11.75;;;;;;;5.62;45.67;101448.88;5033682;28;20034;-77
2022/03/11 07:31:58;;;;;;;16.88;10.52;;;;;;;5.65;45.67;101447.91;5030872;28;20035;-77
2022/03/11 07:34:23;;;;;;;17.20;9.90;;;;;;;5.69;45.71;101457.34;5033790;28;20044;-77
2022/03/11 07:36:49;;;;;;;16.30;10.55;;;;;;;5.72;45.75;101451.94;5033915;28;20025;-78
2022/03/11 07:39:14;;;;;;;17.33;10.80;;;;;;;5.73;45.48;101443.97;5033575;28;20480;-77
2022/03/11 07:41:40;;;;;;;17.42;10.32;;;;;;;5.81;45.85;101448.03;5033992;28;20033;-77
2022/03/11 07:44:05;;;;;;;14.25;10.32;;;;;;;5.88;45.42;101433.66;5033470;28;20037;-78
2022/03/11 07:46:31;;;;;;;16.52;10.60;;;;;;;5.94;45.75;101443.88;5034092;28;20041;-78
2022/03/11 07:48:57;;;;;;;18.80;9.80;;;;;;;6.02;45.35;101447.03;5033623;28;20041;-78
2022/03/11 07:51:25;;;;;;;19.25;10.90;;;;;;;6.10;45.50;101439.63;5033813;28;20021;-78
2022/03/11 07:53:50;;;;;;;15.13;10.02;;;;;;;6.21;45.10;101443.50;5033673;28;20056;-77
2022/03/11 07:56:15;;;;;;;18.33;10.18;;;;;;;6.31;44.82;101436.84;5033321;28;20053;-77
2022/03/11 07:58:42;;;;;;;16.30;10.45;;;;;;;6.41;44.73;101435.50;5034379;28;20030;-77
2022/03/11 08:01:12;;;;;;;18.15;11.02;;;;;;;6.55;44.59;101440.06;5036845;28;20061;-77
2022/03/11 08:03:40;;;;;;;17.90;10.38;;;;;;;6.66;44.30;101434.25;5031946;28;20469;-77
2022/03/11 08:06:07;;;;;;;22.45;12.25;;;;;;;6.79;44.82;101413.34;5034940;28;20099;-78
2022/03/11 08:08:33;;;;;;;18.38;11.10;;;;;;;6.92;43.97;101422.34;5030841;28;20404;-78
2022/03/11 08:10:58;;;;;;;20.00;12.65;;;;;;;7.01;44.04;101400.75;5024584;28;20121;-77
2022/03/11 08:13:24;;;;;;;17.83;10.98;;;;;;;7.11;43.70;101409.03;5034413;28;20087;-78
2022/03/11 08:15:50;;;;;;;18.13;10.43;;;;;;;7.22;43.02;101408.47;5034819;28;20116;-78
2022/03/11 08:18:15;;;;;;;15.30;10.57;;;;;;;7.33;43.31;101416.66;5034520;28;20108;-78
2022/03/11 08:20:41;;;;;;;15.63;10.70;;;;;;;7.48;43.33;101420.28;5034631;28;20068;-78
2022/03/11 08:23:07;;;;;;;20.45;11.38;;;;;;;7.62;43.21;101422.16;5034501;28;20512;-78
2022/03/11 08:25:37;;;;;;;17.55;10.48;;;;;;;7.84;42.39;101426.25;5033957;28;20127;-77
2022/03/11 08:28:04;;;;;;;16.85;10.77;;;;;;;7.98;42.15;101421.06;5034929;28;20021;-77
2022/03/11 08:30:30;;;;;;;23.20;12.05;;;;;;;8.10;42.43;101414.22;5033746;28;20484;-78
2022/03/11 08:32:56;;;;;;;15.63;9.57;;;;;;;8.30;41.67;101407.78;5034474;28;20029;-79
2022/03/11 08:35:22;;;;;;;17.27;10.80;;;;;;;8.44;41.55;101418.47;5034101;28;20038;-80
2022/03/11 08:37:47;;;;;;;17.67;11.02;;;;;;;8.63;41.08;101410.28;5033679;28;20499;-80
2022/03/11 08:40:14;;;;;;;21.85;10.73;;;;;;;8.80;40.88;101403.13;5034220;28;20447;-80
2022/03/11 08:42:40;;;;;;;18.98;11.23;;;;;;;8.95;40.73;101403.97;5033963;28;20025;-80
2022/03/11 08:45:08;;;;;;;18.50;11.18;;;;;;;9.10;40.84;101402.19;5032524;28;20490;-81
2022/03/11 08:47:33;;;;;;;19.20;11.18;;;;;;;9.28;40.30;101405.50;5039887;28;20033;-80
2022/03/11 08:49:59;;;;;;;21.13;11.60;;;;;;;9.39;40.01;101395.06;5032232;28;20508;-77
2022/03/11 08:52:25;;;;;;;22.55;11.02;;;;;;;9.41;39.58;101388.75;5013976;28;20185;-78
2022/03/11 08:54:51;;;;;;;17.80;10.43;;;;;;;9.53;39.33;101400.38;5034292;28;20041;-81
2022/03/11 08:57:16;;;;;;;17.73;11.48;;;;;;;9.64;39.66;101407.63;5033575;28;20099;-79
2022/03/11 08:59:41;;;;;;;18.08;10.57;;;;;;;9.80;39.51;101396.91;5034049;28;20512;-77
2022/03/11 09:02:07;;;;;;;20.70;10.63;;;;;;;10.02;39.15;101385.72;5034054;28;20013;-77
2022/03/11 09:04:33;;;;;;;16.48;10.45;;;;;;;10.17;38.88;101383.88;5032813;28;20057;-77
2022/03/11 09:06:59;;;;;;;21.67;11.32;;;;;;;10.31;38.60;101380.31;5032321;28;20029;-79
2022/03/11 09:09:24;;;;;;;16.10;10.43;;;;;;;10.41;38.47;101375.25;5030923;28;20028;-78
2022/03/11 09:11:49;;;;;;;15.98;10.68;;;;;;;10.52;38.62;101375.38;5032346;28;20056;-79
2022/03/11 09:14:14;;;;;;;17.25;11.35;;;;;;;10.66;38.61;101369.97;5031586;28;20479;-80
2022/03/11 09:16:40;;;;;;;15.75;10.75;;;;;;;10.86;38.09;101376.56;5028132;28;20044;-78
2022/03/11 09:19:05;;;;;;;14.68;10.18;;;;;;;10.93;37.82;101364.56;5032144;28;20033;-79
2022/03/11 09:21:30;;;;;;;15.95;10.95;;;;;;;11.05;37.93;101369.97;5032081;28;20045;-78
2022/03/11 09:23:56;;;;;;;16.02;10.68;;;;;;;11.17;37.41;101373.56;5032222;28;20440;-79
2022/03/11 09:26:21;;;;;;;16.27;10.68;;;;;;;11.19;37.10;101375.19;5031254;28;20060;-78
2022/03/11 09:28:46;;;;;;;19.00;10.75;;;;;;;11.32;37.42;101361.00;5032243;28;20026;-78
2022/03/11 09:31:12;;;;;;;17.08;10.60;;;;;;;11.55;37.46;101354.03;5031616;28;20045;-79
2022/03/11 09:33:39;;;;;;;17.70;10.48;;;;;;;11.62;36.68;101361.47;5031916;28;20030;-78
2022/03/11 09:36:05;;;;;;;16.75;10.70;;;;;;;11.65;37.20;101345.25;5031576;28;20108;-77
2022/03/11 09:38:31;;;;;;;20.05;11.07;;;;;;;11.80;36.96;101350.41;5031270;28;20075;-78
2022/03/11 09:40:58;;;;;;;20.65;10.88;;;;;;;11.91;36.48;101344.31;5031684;28;20049;-78
2022/03/11 09:43:25;;;;;;;15.73;10.85;;;;;;;12.00;36.67;101338.31;5031629;28;20057;-78
2022/03/11 09:45:51;;;;;;;17.17;10.50;;;;;;;12.14;36.36;101343.47;5031347;28;20055;-79
2022/03/11 09:48:17;;;;;;;17.83;10.32;;;;;;;12.31;36.19;101344.00;5031532;28;20104;-79
2022/03/11 09:50:43;;;;;;;20.83;10.32;;;;;;;12.40;36.53;101341.47;5031672;28;20235;-79
2022/03/11 09:53:10;;;;;;;24.33;11.02;;;;;;;12.48;35.56;101327.56;5033107;28;20071;-79
2022/03/11 09:55:35;;;;;;;20.00;10.32;;;;;;;12.55;35.95;101326.13;5032303;28;20366;-79
2022/03/11 09:58:00;;;;;;;17.97;10.07;;;;;;;12.71;35.98;101311.63;5031352;28;20033;-79
2022/03/11 10:00:25;;;;;;;14.82;11.10;;;;;;;12.89;35.92;101320.84;5031647;28;20643;-79
2022/03/11 10:02:51;;;;;;;18.38;9.90;;;;;;;12.98;35.51;101307.75;5031923;28;20029;-79
2022/03/11 10:05:17;;;;;;;19.55;10.35;;;;;;;12.98;35.28;101318.41;5032306;28;20079;-80
2022/03/11 10:07:42;;;;;;;16.15;10.52;;;;;;;13.10;35.70;101314.75;5033256;28;20053;-80
2022/03/11 10:10:16;;;;;;;16.33;10.85;;;;;;;13.24;35.60;101310.97;5035264;28;20088;-79
2022/03/11 10:12:44;;;;;;;16.77;10.80;;;;;;;13.10;34.82;101317.44;5036984;28;20105;-79
2022/03/11 10:15:11;;;;;;;16.95;10.45;;;;;;;13.17;35.31;101309.78;5036813;28;20041;-80
2022/03/11 10:17:41;;;;;;;16.05;11.27;;;;;;;13.25;35.25;101304.69;5037189;28;20033;-80
2022/03/11 10:20:15;;;;;;;16.75;10.35;;;;;;;13.36;35.45;101294.03;5036184;28;20083;-80
2022/03/11 10:22:42;;;;;;;19.52;10.93;;;;;;;13.66;35.65;101295.16;5037286;28;20075;-81
2022/03/11 10:25:12;;;;;;;17.52;10.75;;;;;;;13.96;34.73;101286.41;5035697;28;20088;-79
2022/03/11 10:27:58;;;;;;;15.88;10.52;;;;;;;14.06;34.94;101290.00;5024100;28;20041;-79
2022/03/11 10:30:25;;;;;;;17.02;10.63;;;;;;;14.12;34.39;101290.47;5026556;28;20132;-79
2022/03/11 10:32:54;;;;;;;16.58;10.02;;;;;;;14.12;34.24;101294.00;5047497;28;20032;-79
2022/03/11 10:35:21;;;;;;;15.10;10.63;;;;;;;14.19;34.25;101280.97;5035472;28;20029;-77
2022/03/11 10:37:57;;;;;;;19.52;10.43;;;;;;;14.23;34.41;101274.38;5035300;28;20061;-78
2022/03/11 10:40:22;;;;;;;14.18;9.88;;;;;;;14.37;34.46;101274.06;5036229;28;20037;-79
2022/03/11 10:42:47;;;;;;;16.67;10.30;;;;;;;14.47;34.48;101271.44;5035839;28;20099;-78
2022/03/11 10:45:14;;;;;;;16.75;10.02;;;;;;;14.58;34.28;101260.63;5035568;28;20290;-78
2022/03/11 10:47:41;;;;;;;16.15;9.98;;;;;;;14.66;34.04;101246.66;5035146;28;20033;-78
2022/03/11 10:50:11;;;;;;;15.65;9.70;;;;;;;14.85;33.71;101251.22;5035130;28;20124;-80
2022/03/11 10:52:44;;;;;;;16.95;9.85;;;;;;;15.12;34.54;101244.38;5035547;28;20632;-79
2022/03/11 10:55:27;;;;;;;16.52;9.75;;;;;;;15.22;33.86;101247.09;5034492;28;20030;-79
2022/03/11 10:57:54;;;;;;;15.35;9.82;;;;;;;15.36;33.73;101247.53;5034373;28;20049;-78
2022/03/11 11:00:26;;;;;;;14.90;9.98;;;;;;;15.63;33.98;101234.44;5034807;28;20483;-79
2022/03/11 11:02:53;;;;;;;17.23;9.90;;;;;;;15.54;32.68;101228.94;5034496;28;20240;-78
2022/03/11 11:05:20;;;;;;;20.67;10.50;;;;;;;15.50;32.70;101230.22;5034088;28;20087;-78
2022/03/11 11:07:46;;;;;;;20.05;10.73;;;;;;;15.52;32.94;101230.06;5033875;28;20080;-81
2022/03/11 11:10:14;;;;;;;20.00;11.63;;;;;;;15.65;32.52;101229.78;5034099;28;20037;-79
2022/03/11 11:12:40;;;;;;;14.63;10.95;;;;;;;15.71;32.81;101230.06;5034122;28;20113;-80
2022/03/11 11:15:06;;;;;;;17.38;10.43;;;;;;;15.81;33.05;101230.09;5034273;28;20025;-82